createdAt,value
2019-01-29T00:00:09.261Z,0.63
2019-01-29T00:05:09.304Z,0.69
2019-01-29T00:10:09.267Z,0.63
2019-01-29T00:15:09.267Z,0.63
2019-01-29T00:20:09.305Z,0.63
2019-01-29T00:25:09.242Z,0.63
2019-01-29T00:30:09.240Z,0.63
2019-01-29T00:35:09.281Z,0.63
2019-01-29T00:40:09.324Z,0.56
2019-01-29T00:45:09.276Z,0.56
2019-01-29T00:50:09.300Z,0.56
2019-01-29T00:55:09.283Z,0.5
2019-01-29T01:00:09.290Z,0.44
2019-01-29T01:05:09.298Z,0.44
2019-01-29T01:10:09.277Z,0.5
2019-01-29T01:15:09.289Z,0.44
2019-01-29T01:20:09.315Z,0.38
2019-01-29T01:25:09.294Z,0.06
2019-01-29T01:30:09.354Z,-0.06
2019-01-29T01:35:09.279Z,-0.13
2019-01-29T01:40:09.286Z,-0.13
2019-01-29T01:45:09.296Z,-0.25
2019-01-29T01:50:09.296Z,-0.25
2019-01-29T01:55:09.323Z,-0.25
2019-01-29T02:00:09.298Z,-0.31
2019-01-29T02:05:09.295Z,-0.31
2019-01-29T02:10:09.329Z,-0.31
2019-01-29T02:15:09.302Z,-0.31
2019-01-29T02:20:09.306Z,-0.38
2019-01-29T02:25:09.340Z,-0.44
2019-01-29T02:30:09.311Z,-0.44
2019-01-29T02:35:09.307Z,-0.44
2019-01-29T02:40:09.330Z,-0.5
2019-01-29T02:45:09.312Z,-0.44
2019-01-29T02:50:09.303Z,-0.44
2019-01-29T02:55:09.360Z,-0.44
2019-01-29T03:00:09.323Z,-0.5
2019-01-29T03:05:09.281Z,-0.44
2019-01-29T03:10:09.320Z,-0.44
2019-01-29T03:15:09.289Z,-0.44
2019-01-29T03:20:09.332Z,-0.44
2019-01-29T03:25:09.323Z,-0.44
2019-01-29T03:30:09.327Z,-0.38
2019-01-29T03:35:09.322Z,-0.31
2019-01-29T03:40:09.295Z,-0.25
2019-01-29T03:45:09.327Z,-0.25
2019-01-29T03:50:09.395Z,-0.19
2019-01-29T03:55:09.328Z,-0.25
2019-01-29T04:00:09.333Z,-0.19
2019-01-29T04:05:09.364Z,-0.13
2019-01-29T04:10:09.341Z,-0.13
2019-01-29T04:15:09.342Z,-0.19
2019-01-29T04:20:09.368Z,-0.13
2019-01-29T04:25:09.328Z,-0.13
2019-01-29T04:30:09.338Z,-0.13
2019-01-29T04:35:09.379Z,-0.25
2019-01-29T04:40:09.337Z,-0.25
2019-01-29T04:45:09.338Z,-0.13
2019-01-29T04:50:09.381Z,-0.06
2019-01-29T04:55:09.354Z,-0.13
2019-01-29T05:00:09.350Z,-0.13
2019-01-29T05:05:09.385Z,-0.06
2019-01-29T05:10:09.394Z,0
2019-01-29T05:15:09.351Z,0.06
2019-01-29T05:20:09.399Z,0.13
2019-01-29T05:25:09.357Z,0.19
2019-01-29T05:30:09.353Z,0.19
2019-01-29T05:35:09.381Z,0.19
2019-01-29T05:40:09.358Z,0.19
2019-01-29T05:45:09.410Z,0.25
2019-01-29T05:50:09.368Z,0.19
2019-01-29T05:55:09.368Z,0.19
2019-01-29T06:00:09.351Z,0.13
2019-01-29T06:05:09.331Z,0.19
2019-01-29T06:10:09.358Z,0.25
2019-01-29T06:15:09.348Z,0.25
2019-01-29T06:20:09.347Z,0.31
2019-01-29T06:25:09.373Z,0.31
2019-01-29T06:30:09.366Z,0.38
2019-01-29T06:35:09.347Z,0.38
2019-01-29T13:35:09.666Z,0.44
2019-01-29T13:40:09.411Z,3.19
2019-01-29T13:45:09.449Z,3.31
2019-01-29T13:50:09.387Z,3.38
2019-01-29T13:55:09.400Z,3.38
2019-01-29T14:00:09.396Z,3.31
2019-01-29T14:05:09.424Z,3.13
2019-01-29T14:10:09.401Z,2.94
2019-01-29T14:15:09.395Z,2.81
2019-01-29T14:20:09.411Z,2.69
2019-01-29T14:25:09.411Z,2.56
2019-01-29T14:30:09.415Z,2.56
2019-01-29T14:35:09.407Z,2.63
2019-01-29T14:40:09.384Z,2.63
2019-01-29T14:45:09.433Z,2.63
2019-01-29T14:50:09.420Z,2.63
2019-01-29T14:55:09.435Z,2.69
2019-01-29T15:00:09.395Z,2.75
2019-01-29T15:05:09.451Z,2.81
2019-01-29T15:10:09.419Z,2.75
2019-01-29T15:15:09.444Z,2.69
2019-01-29T15:20:09.428Z,2.63
2019-01-29T15:25:09.424Z,2.44
2019-01-29T15:30:09.433Z,2.31
2019-01-29T15:35:09.450Z,2.25
2019-01-29T15:40:09.441Z,2.13
2019-01-29T15:45:09.460Z,1.94
2019-01-29T15:50:09.459Z,1.81
2019-01-29T15:55:09.419Z,1.69
2019-01-29T16:00:09.447Z,1.56
2019-01-29T16:05:09.448Z,1.31
2019-01-29T16:10:09.447Z,1.19
2019-01-29T16:15:09.452Z,1.13
2019-01-29T16:20:09.461Z,1.06
2019-01-29T16:25:09.466Z,1.13
2019-01-29T16:30:09.460Z,1.13
2019-01-29T16:35:09.504Z,1.13
2019-01-29T16:40:09.433Z,1.13
2019-01-29T16:45:09.446Z,1.13
2019-01-29T16:50:09.478Z,1.13
2019-01-29T16:55:09.472Z,1.13
2019-01-29T17:00:09.471Z,1.13
2019-01-29T17:05:09.472Z,1.13
2019-01-29T17:10:09.496Z,1.06
2019-01-29T17:15:09.473Z,0.94
2019-01-29T17:20:09.495Z,0.81
2019-01-29T17:25:09.489Z,0.63
2019-01-29T17:30:09.558Z,0.5
2019-01-29T17:35:09.556Z,0.44
2019-01-29T17:40:10.392Z,0.31
2019-01-29T17:45:09.502Z,0.13
2019-01-29T17:50:09.503Z,0.06
2019-01-29T17:55:09.502Z,-0.06
2019-01-29T18:00:09.541Z,-0.13
2019-01-29T18:05:09.505Z,-0.19
2019-01-29T18:10:09.521Z,-0.25
2019-01-29T18:15:09.509Z,-0.31
2019-01-29T18:20:09.509Z,-0.31
2019-01-29T18:25:09.532Z,-0.38
2019-01-29T18:30:09.530Z,-0.38
2019-01-29T18:35:09.505Z,-0.44
2019-01-29T18:40:09.518Z,-0.44
2019-01-29T18:45:09.509Z,-0.56
2019-01-29T18:50:09.527Z,-0.56
2019-01-29T18:55:09.515Z,-0.56
2019-01-29T19:00:09.518Z,-0.63
2019-01-29T19:05:09.575Z,-0.63
2019-01-29T19:10:09.527Z,-0.63
2019-01-29T19:15:09.521Z,-0.69
2019-01-29T19:20:09.536Z,-0.69
2019-01-29T19:25:09.629Z,-0.81
2019-01-29T19:30:09.536Z,-0.88
2019-01-29T19:35:09.530Z,-0.88
2019-01-29T19:40:09.549Z,-0.94
2019-01-29T19:45:09.562Z,-1.06
2019-01-29T19:50:09.570Z,-1.06
2019-01-29T19:55:09.601Z,-1.06
2019-01-29T20:00:09.556Z,-1.13
2019-01-29T20:05:09.560Z,-1.19
2019-01-29T20:10:09.557Z,-1.25
2019-01-29T20:15:09.558Z,-1.25
2019-01-29T20:20:09.570Z,-1.25
2019-01-29T20:25:09.570Z,-1.38
2019-01-29T20:30:09.579Z,-1.44
2019-01-29T20:35:09.573Z,-1.5
2019-01-29T20:40:09.570Z,-1.56
2019-01-29T20:45:09.575Z,-1.56
2019-01-29T20:50:09.595Z,-1.56
2019-01-29T20:55:11.616Z,-1.63
2019-01-29T21:00:09.595Z,-1.69
2019-01-29T21:05:09.624Z,-1.75
2019-01-29T21:10:09.580Z,-1.75
2019-01-29T21:15:09.590Z,-1.75
2019-01-29T21:20:09.594Z,-1.75
2019-01-29T21:25:09.595Z,-1.69
2019-01-29T21:30:09.603Z,-1.63
2019-01-29T21:35:09.637Z,-1.69
2019-01-29T21:40:09.605Z,-1.69
2019-01-29T21:45:09.605Z,-1.5
2019-01-29T21:50:11.416Z,-1.38
2019-01-29T21:55:09.576Z,-1.38
2019-01-29T22:00:09.585Z,-1.38
2019-01-29T22:05:09.656Z,-1.44
2019-01-29T22:10:09.597Z,-1.5
2019-01-29T22:15:09.597Z,-1.56
2019-01-29T22:20:09.655Z,-1.63
2019-01-29T22:25:09.596Z,-1.69
2019-01-29T22:30:09.589Z,-1.75
2019-01-29T22:35:09.628Z,-1.81
2019-01-29T22:40:09.592Z,-1.81
2019-01-29T22:45:09.607Z,-1.75
2019-01-29T22:50:09.648Z,-1.75
2019-01-29T22:55:09.654Z,-1.75
2019-01-29T23:00:09.627Z,-1.81
2019-01-29T23:05:09.653Z,-1.94
2019-01-29T23:10:09.637Z,-2
2019-01-29T23:15:09.669Z,-2
2019-01-29T23:20:09.643Z,-2.06
2019-01-29T23:25:09.637Z,-2.13
2019-01-29T23:30:09.628Z,-2.13
2019-01-29T23:35:09.664Z,-2.13
2019-01-29T23:40:09.627Z,-2.19
2019-01-29T23:45:10.697Z,-2.19
2019-01-29T23:50:09.666Z,-2.19
2019-01-29T23:55:09.672Z,-2.25
